createdAt,value
2018-09-15T05:03:25.184Z,468.00
2018-09-15T05:04:24.646Z,516.00
2018-09-15T05:05:24.661Z,576.00
2018-09-15T05:06:24.587Z,632.00
2018-09-15T05:07:24.605Z,692.00
2018-09-15T05:08:24.737Z,752.00
2018-09-15T05:09:24.687Z,804.00
2018-09-15T05:10:24.568Z,856.00
2018-09-15T05:11:35.578Z,912.00
2018-09-15T05:23:55.110Z,1656.00
2018-09-15T05:26:31.867Z,1844.00
2018-09-15T05:31:53.261Z,2384.00
2018-09-15T05:32:52.830Z,2484.00
2018-09-15T05:33:54.706Z,2572.00
2018-09-15T05:34:52.784Z,2656.00
2018-09-15T05:35:52.758Z,2716.00
2018-09-15T05:36:52.802Z,2768.00
2018-09-15T05:37:59.663Z,2816.00
2018-09-15T05:38:53.636Z,2872.00
2018-09-15T05:39:52.716Z,2904.00
2018-09-15T05:40:52.661Z,2944.00
2018-09-15T05:41:52.610Z,2988.00
2018-09-15T05:42:52.722Z,3032.00
2018-09-15T05:43:52.683Z,3096.00
2018-09-15T05:44:52.648Z,3168.00
2018-09-15T05:45:52.847Z,3232.00
2018-09-15T05:46:54.596Z,3288.00
2018-09-15T05:47:52.855Z,3368.00
2018-09-15T05:48:52.529Z,3432.00
2018-09-15T05:49:52.522Z,3456.00
2018-09-15T05:50:52.556Z,3508.00
2018-09-15T05:51:52.562Z,3532.00
2018-09-15T05:52:52.621Z,3524.00
2018-09-15T05:53:52.580Z,3608.00
2018-09-15T05:54:54.171Z,3684.00
2018-09-15T05:55:52.584Z,3696.00
2018-09-15T05:56:52.537Z,3704.00
2018-09-15T05:57:52.470Z,3744.00
2018-09-15T05:58:52.472Z,3792.00
2018-09-15T05:59:52.474Z,3824.00
2018-09-15T06:00:52.459Z,3856.00
2018-09-15T06:01:52.513Z,3916.00
2018-09-15T06:02:52.488Z,3968.00
2018-09-15T06:03:52.562Z,4080.00
2018-09-15T06:04:52.362Z,4160.00
2018-09-15T06:05:52.434Z,4180.00
2018-09-15T06:06:52.482Z,4192.00
2018-09-15T06:07:52.327Z,4220.00
2018-09-15T06:08:52.370Z,4280.00
2018-09-15T06:09:52.343Z,4360.00
2018-09-15T06:10:52.392Z,4460.00
2018-09-15T06:11:52.439Z,4552.00
2018-09-15T06:12:52.382Z,4644.00
2018-09-15T06:13:52.389Z,4732.00
2018-09-15T06:14:52.272Z,4824.00
2018-09-15T06:15:52.309Z,4892.00
2018-09-15T06:16:52.266Z,4928.00
2018-09-15T06:17:52.261Z,4972.00
2018-09-15T06:18:52.344Z,5012.00
2018-09-15T06:19:52.188Z,5060.00
2018-09-15T06:20:52.276Z,5084.00
2018-09-15T06:21:52.183Z,5096.00
2018-09-15T06:22:52.167Z,5112.00
2018-09-15T06:23:52.174Z,5264.00
2018-09-15T06:24:52.150Z,5420.00
2018-09-15T06:25:52.171Z,5504.00
2018-09-15T06:26:52.124Z,5596.00
2018-09-15T06:27:52.141Z,5680.00
2018-09-15T06:28:52.185Z,5764.00
2018-09-15T06:29:52.081Z,5824.00
2018-09-15T06:30:52.124Z,5844.00
2018-09-15T06:31:52.064Z,5884.00
2018-09-15T06:32:52.044Z,6004.00
2018-09-15T06:33:52.079Z,6036.00
2018-09-15T06:34:52.141Z,6060.00
2018-09-15T06:35:52.127Z,6076.00
2018-09-15T06:36:52.001Z,6108.00
2018-09-15T06:37:51.993Z,6156.00
2018-09-15T06:42:07.112Z,6424.00
2018-09-15T06:43:06.506Z,6504.00
2018-09-15T06:44:06.962Z,6584.00
2018-09-15T06:45:06.495Z,6676.00
2018-09-15T06:46:06.445Z,6776.00
2018-09-15T06:47:06.459Z,6924.00
2018-09-15T06:48:06.381Z,7080.00
2018-09-15T06:49:06.421Z,7196.00
2018-09-15T06:50:06.340Z,7296.00
2018-09-15T06:51:06.335Z,7264.00
2018-09-15T06:52:06.331Z,7568.00
2018-09-15T06:53:06.374Z,7564.00
2018-09-15T06:54:06.297Z,7784.00
2018-09-15T06:55:06.351Z,7828.00
2018-09-15T06:56:06.274Z,7840.00
2018-09-15T06:57:06.318Z,7864.00
2018-09-15T06:58:06.276Z,7916.00
2018-09-15T06:59:06.261Z,7888.00
2018-09-15T07:00:06.332Z,7812.00
2018-09-15T07:01:06.224Z,7900.00
2018-09-15T07:02:06.212Z,8020.00
2018-09-15T07:03:06.222Z,8112.00
2018-09-15T07:04:06.186Z,8164.00
2018-09-15T07:05:06.167Z,8120.00
2018-09-15T07:06:06.192Z,8116.00
2018-09-15T07:07:06.298Z,8296.00
2018-09-15T07:08:06.133Z,8264.00
2018-09-15T07:09:06.211Z,8028.00
2018-09-15T07:10:06.168Z,8044.00
2018-09-15T07:11:06.147Z,8256.00
2018-09-15T07:13:41.836Z,8340.00
2018-09-15T07:14:42.891Z,8388.00
2018-09-15T07:15:44.097Z,8476.00
2018-09-15T07:20:24.765Z,8724.00
2018-09-15T07:21:24.770Z,8712.00
2018-09-15T07:22:23.314Z,8640.00
2018-09-15T07:23:23.276Z,8664.00
2018-09-15T07:24:23.235Z,8756.00
2018-09-15T07:25:24.698Z,8960.00
2018-09-15T07:26:23.025Z,9156.00
2018-09-15T07:27:23.012Z,9216.00
2018-09-15T07:28:23.074Z,9324.00
2018-09-15T07:29:22.999Z,9352.00
2018-09-15T07:30:23.083Z,9312.00
2018-09-15T07:31:23.043Z,9416.00
2018-09-15T07:32:23.041Z,9584.00
2018-09-15T07:33:23.016Z,9764.00
2018-09-15T07:34:22.945Z,9884.00
2018-09-15T07:35:22.966Z,9940.00
2018-09-15T07:36:22.914Z,9888.00
2018-09-15T07:37:23.053Z,9784.00
2018-09-15T07:38:22.908Z,9812.00
2018-09-15T07:39:22.959Z,9864.00
2018-09-15T07:40:25.061Z,9892.00
2018-09-15T07:41:22.878Z,9836.00
2018-09-15T07:42:22.865Z,9800.00
2018-09-15T07:43:22.866Z,9836.00
2018-09-15T07:44:22.825Z,9872.00
2018-09-15T07:45:22.815Z,9932.00
2018-09-15T07:46:22.960Z,10104.00
2018-09-15T07:47:22.857Z,10460.00
2018-09-15T07:48:22.812Z,22048.00
2018-09-15T07:49:23.418Z,48128.00
2018-09-15T07:50:23.003Z,55808.00
2018-09-15T07:54:18.381Z,61664.00
2018-09-15T07:56:35.439Z,62816.00
2018-09-15T07:57:35.178Z,60544.00
2018-09-15T07:58:35.258Z,60256.00
2018-09-15T07:59:35.766Z,61024.00
2018-09-15T08:00:35.081Z,62240.00
2018-09-15T08:01:34.852Z,63104.00
2018-09-15T08:02:34.737Z,63424.00
2018-09-15T08:03:34.712Z,63584.00
2018-09-15T08:06:00.658Z,64672.00
2018-09-15T08:07:00.693Z,66848.00
2018-09-15T08:08:00.369Z,67040.00
2018-09-15T08:10:34.840Z,66688.00
2018-09-15T08:11:41.572Z,66848.00
2018-09-15T08:12:35.059Z,64544.00
2018-09-15T08:13:35.097Z,70080.00
2018-09-15T08:14:34.700Z,70176.00
2018-09-15T08:15:34.836Z,69056.00
2018-09-15T08:16:34.701Z,68288.00
2018-09-15T08:17:34.716Z,68672.00
2018-09-15T08:18:36.415Z,68192.00
2018-09-15T08:19:34.592Z,70016.00
2018-09-15T08:20:34.669Z,70528.00
2018-09-15T08:21:34.583Z,72000.00
2018-09-15T08:22:34.581Z,73312.00
2018-09-15T08:23:34.630Z,75104.00
2018-09-15T08:24:34.582Z,75808.00
2018-09-15T08:25:34.519Z,75712.00
2018-09-15T08:26:34.571Z,77248.00
2018-09-15T08:27:34.518Z,77856.00
2018-09-15T08:28:34.589Z,76224.00
2018-09-15T08:29:34.481Z,73856.00
2018-09-15T08:30:34.485Z,74976.00
2018-09-15T08:31:36.614Z,73696.00
2018-09-15T08:33:50.245Z,79168.00
2018-09-15T08:40:04.817Z,82944.00
2018-09-15T08:40:53.458Z,81056.00
2018-09-15T08:55:31.479Z,83008.00
2018-09-15T08:56:31.800Z,85568.00
2018-09-15T08:57:33.078Z,84480.00
2018-09-15T08:58:31.282Z,86304.00
2018-09-15T08:59:31.383Z,90272.00
2018-09-15T09:00:31.140Z,87104.00
2018-09-15T09:01:31.219Z,81408.00
2018-09-15T09:02:31.120Z,79200.00
2018-09-15T09:03:31.144Z,80896.00
2018-09-15T09:04:31.308Z,27232.00
2018-09-15T09:07:18.171Z,89536.00
2018-09-15T09:08:17.981Z,85216.00
2018-09-15T09:09:18.813Z,91296.00
2018-09-15T09:10:17.857Z,91936.00
2018-09-15T09:11:19.168Z,94112.00
2018-09-15T09:12:17.645Z,93440.00
2018-09-15T09:13:17.676Z,91104.00
2018-09-15T09:14:17.591Z,91456.00
2018-09-15T09:15:17.576Z,90976.00
2018-09-15T09:16:18.139Z,91232.00
2018-09-15T09:17:17.760Z,88512.00
2018-09-15T09:18:17.609Z,88096.00
2018-09-15T09:19:17.537Z,92512.00
2018-09-15T09:20:17.537Z,95680.00
2018-09-15T09:22:40.694Z,94944.00
2018-09-15T09:23:39.907Z,99040.00
2018-09-15T09:24:43.482Z,102016.00
2018-09-15T09:43:22.669Z,23296.00
2018-09-15T09:47:27.317Z,42784.00
2018-09-15T09:48:26.865Z,47360.00
2018-09-15T09:49:26.861Z,45824.00
2018-09-15T09:50:27.035Z,35456.00
2018-09-15T09:51:29.218Z,31712.00
2018-09-15T09:56:09.003Z,17440.00
2018-09-15T09:59:43.298Z,7516.00
2018-09-15T10:00:42.910Z,6976.00
2018-09-15T10:01:42.925Z,7808.00
2018-09-15T10:02:42.750Z,8912.00
2018-09-15T10:03:45.596Z,9140.00
2018-09-15T10:04:42.890Z,10644.00
2018-09-15T10:05:42.710Z,11924.00
2018-09-15T10:06:42.678Z,12972.00
2018-09-15T10:07:42.689Z,14988.00
2018-09-15T10:08:42.674Z,16872.00
2018-09-15T10:09:42.650Z,18944.00
2018-09-15T10:10:42.719Z,22272.00
2018-09-15T10:11:43.647Z,24512.00
2018-09-15T10:12:42.623Z,25664.00
2018-09-15T10:13:42.614Z,26368.00
2018-09-15T10:14:42.671Z,26016.00
2018-09-15T10:17:24.259Z,30464.00
2018-09-15T10:23:01.557Z,29024.00
2018-09-15T10:26:02.323Z,75488.00
2018-09-15T10:27:00.019Z,32832.00
2018-09-15T10:28:00.353Z,78112.00
2018-09-15T10:29:00.985Z,94208.00
2018-09-15T10:37:18.519Z,86336.00
2018-09-15T10:38:18.132Z,18048.00
2018-09-15T10:39:18.766Z,16612.00
2018-09-15T10:54:18.814Z,18464.00
2018-09-15T10:55:18.488Z,18336.00
2018-09-15T11:06:23.333Z,20032.00
2018-09-15T11:27:45.455Z,93216.00
2018-09-15T11:29:56.581Z,93216.00
2018-09-15T11:32:30.336Z,87584.00
2018-09-15T11:33:29.903Z,52992.00
2018-09-15T11:34:29.850Z,22208.00
2018-09-15T11:35:30.033Z,20992.00
2018-09-15T11:36:29.779Z,20480.00
2018-09-15T11:37:29.726Z,21344.00
2018-09-15T11:38:29.728Z,21760.00
2018-09-15T11:39:31.521Z,21856.00
2018-09-15T11:40:29.692Z,21504.00
2018-09-15T11:41:29.686Z,20928.00
2018-09-15T11:42:29.675Z,20192.00
2018-09-15T11:43:29.806Z,19712.00
2018-09-15T11:44:29.654Z,19456.00
2018-09-15T11:45:29.710Z,19744.00
2018-09-15T11:46:29.641Z,20864.00
2018-09-15T11:47:29.625Z,22240.00
2018-09-15T11:48:29.617Z,23328.00
2018-09-15T11:49:29.595Z,22848.00
2018-09-15T11:50:29.582Z,22560.00
2018-09-15T11:51:29.631Z,22464.00
2018-09-15T11:52:29.593Z,21600.00
2018-09-15T11:53:29.571Z,20256.00
2018-09-15T11:54:29.620Z,18720.00
2018-09-15T11:55:29.528Z,17312.00
2018-09-15T11:56:29.574Z,15964.00
2018-09-15T11:57:30.152Z,14880.00
2018-09-15T11:58:29.509Z,14328.00
2018-09-15T11:59:29.588Z,14100.00
2018-09-15T12:00:29.486Z,13972.00
2018-09-15T12:01:29.505Z,14016.00
2018-09-15T12:02:29.528Z,14072.00
2018-09-15T12:03:29.452Z,14128.00
2018-09-15T12:04:29.439Z,14140.00
2018-09-15T12:05:29.427Z,14052.00
2018-09-15T12:06:29.490Z,14164.00
2018-09-15T12:07:29.458Z,14388.00
2018-09-15T12:08:29.397Z,14600.00
2018-09-15T12:09:29.385Z,14768.00
2018-09-15T12:10:29.929Z,14920.00
2018-09-15T12:11:29.355Z,15316.00
2018-09-15T12:12:29.382Z,16016.00
2018-09-15T12:13:29.369Z,16516.00
2018-09-15T12:14:29.362Z,16928.00
2018-09-15T12:15:29.453Z,17248.00
2018-09-15T12:16:29.354Z,17664.00
2018-09-15T12:17:29.299Z,18496.00
2018-09-15T12:18:29.331Z,19168.00
2018-09-15T12:19:31.012Z,19840.00
2018-09-15T12:20:29.311Z,20128.00
2018-09-15T12:21:29.256Z,20192.00
2018-09-15T12:22:29.237Z,20736.00
2018-09-15T12:23:29.237Z,22048.00
2018-09-15T12:24:29.258Z,23744.00
2018-09-15T12:25:29.238Z,24928.00
2018-09-15T12:26:29.198Z,26784.00
2018-09-15T12:27:29.240Z,30240.00
2018-09-15T12:28:29.211Z,33728.00
2018-09-15T12:29:29.177Z,33952.00
2018-09-15T12:30:29.167Z,32448.00
2018-09-15T12:31:29.144Z,60512.00
2018-09-15T12:32:29.179Z,87744.00
2018-09-15T12:33:29.198Z,81248.00
2018-09-15T12:34:29.162Z,47328.00
2018-09-15T12:35:29.155Z,35840.00
2018-09-15T12:36:29.111Z,33056.00
2018-09-15T12:37:29.070Z,31584.00
2018-09-15T12:38:29.078Z,30368.00
2018-09-15T12:39:29.129Z,30144.00
2018-09-15T12:40:29.056Z,30208.00
2018-09-15T12:41:29.056Z,29536.00
2018-09-15T12:42:29.108Z,29312.00
2018-09-15T12:43:29.364Z,30016.00
2018-09-15T12:44:29.005Z,31168.00
2018-09-15T12:45:28.987Z,32256.00
2018-09-15T12:46:29.007Z,33440.00
2018-09-15T12:47:28.983Z,33504.00
2018-09-15T12:48:28.971Z,34112.00
2018-09-15T12:49:28.973Z,38368.00
2018-09-15T12:50:28.953Z,39712.00
2018-09-15T12:51:28.941Z,38304.00
2018-09-15T12:52:28.926Z,33184.00
2018-09-15T12:53:28.903Z,37056.00
2018-09-15T12:54:28.896Z,34752.00
2018-09-15T12:55:28.992Z,32832.00
2018-09-15T12:56:28.869Z,32800.00
2018-09-15T12:57:28.937Z,32896.00
2018-09-15T12:58:28.891Z,31744.00
2018-09-15T12:59:28.840Z,29760.00
2018-09-15T13:00:28.831Z,27136.00
2018-09-15T13:01:28.919Z,24896.00
2018-09-15T13:02:28.879Z,23264.00
2018-09-15T13:03:28.865Z,22016.00
2018-09-15T13:04:28.814Z,20832.00
2018-09-15T13:05:28.837Z,19936.00
2018-09-15T13:06:28.807Z,19232.00
2018-09-15T13:07:28.902Z,18304.00
2018-09-15T13:08:28.901Z,16416.00
2018-09-15T13:09:28.784Z,14672.00
2018-09-15T13:10:28.737Z,13804.00
2018-09-15T13:11:28.718Z,13668.00
2018-09-15T13:12:28.746Z,13788.00
2018-09-15T13:13:28.752Z,13880.00
2018-09-15T13:14:28.869Z,13768.00
2018-09-15T13:15:28.762Z,13572.00
2018-09-15T13:16:28.788Z,13264.00
2018-09-15T13:17:28.829Z,13072.00
2018-09-15T13:18:28.645Z,12736.00
2018-09-15T13:19:28.668Z,12140.00
2018-09-15T13:20:28.609Z,11724.00
2018-09-15T13:21:28.609Z,11728.00
2018-09-15T13:22:28.589Z,11980.00
2018-09-15T13:23:28.601Z,12732.00
2018-09-15T13:24:28.647Z,13508.00
2018-09-15T13:25:28.553Z,13864.00
2018-09-15T13:26:29.513Z,13928.00
2018-09-15T13:27:28.531Z,14156.00
2018-09-15T13:28:28.575Z,14244.00
2018-09-15T13:29:28.611Z,13464.00
2018-09-15T13:30:28.520Z,12504.00
2018-09-15T13:31:28.497Z,11868.00
2018-09-15T13:32:28.661Z,11732.00
2018-09-15T13:35:14.698Z,13128.00
2018-09-15T13:36:14.494Z,13840.00
2018-09-15T13:37:15.233Z,14864.00
2018-09-15T13:38:14.434Z,16240.00
2018-09-15T13:39:14.358Z,17920.00
2018-09-15T13:40:14.199Z,19232.00
2018-09-15T13:42:39.167Z,21792.00
2018-09-15T13:47:15.284Z,20160.00
2018-09-15T13:48:15.052Z,19872.00
2018-09-15T13:49:14.844Z,19904.00
2018-09-15T13:50:14.889Z,19776.00
2018-09-15T13:51:14.777Z,19616.00
2018-09-15T13:52:14.734Z,19840.00
2018-09-15T13:53:14.671Z,20032.00
2018-09-15T13:54:14.642Z,20704.00
2018-09-15T13:55:14.690Z,21920.00
2018-09-15T13:56:14.590Z,22912.00
2018-09-15T13:57:14.581Z,31104.00
2018-09-15T13:58:14.564Z,42240.00
2018-09-15T13:59:14.620Z,30912.00
2018-09-15T14:00:14.699Z,29664.00
2018-09-15T14:01:14.542Z,30688.00
2018-09-15T14:02:14.531Z,32128.00
2018-09-15T14:03:14.705Z,29408.00
2018-09-15T14:04:14.548Z,28288.00
2018-09-15T14:05:14.670Z,27328.00
2018-09-15T14:06:14.508Z,26336.00
2018-09-15T14:07:14.613Z,25760.00
2018-09-15T14:08:14.499Z,24992.00
2018-09-15T14:09:14.486Z,23904.00
2018-09-15T14:10:19.014Z,22720.00
2018-09-15T14:11:14.487Z,22304.00
2018-09-15T14:12:14.441Z,22784.00
2018-09-15T14:13:14.459Z,22368.00
2018-09-15T14:14:14.418Z,21440.00
2018-09-15T14:15:14.392Z,20416.00
2018-09-15T14:16:14.429Z,19296.00
2018-09-15T14:17:14.418Z,18912.00
2018-09-15T14:18:14.431Z,19424.00
2018-09-15T14:19:14.381Z,19808.00
2018-09-15T14:20:14.339Z,20608.00
2018-09-15T14:21:14.326Z,20256.00
2018-09-15T14:22:14.422Z,19616.00
2018-09-15T14:23:14.304Z,19232.00
2018-09-15T14:24:14.295Z,18880.00
2018-09-15T14:25:15.670Z,18912.00
2018-09-15T14:26:14.282Z,19008.00
2018-09-15T14:27:14.431Z,18976.00
2018-09-15T14:28:14.324Z,18816.00
2018-09-15T14:29:14.275Z,18496.00
2018-09-15T14:30:14.229Z,18208.00
2018-09-15T14:31:14.378Z,18240.00
2018-09-15T14:32:14.276Z,18496.00
2018-09-15T14:35:23.296Z,18240.00
2018-09-15T14:36:39.189Z,17504.00
2018-09-15T14:37:23.638Z,17472.00
2018-09-15T14:38:23.214Z,17472.00
2018-09-15T14:39:36.500Z,16612.00
2018-09-15T14:40:23.640Z,15880.00
2018-09-15T14:41:24.255Z,15608.00
2018-09-15T14:42:23.238Z,15732.00
2018-09-15T14:43:23.346Z,16240.00
2018-09-15T14:44:22.858Z,16896.00
2018-09-15T14:45:22.646Z,17632.00
2018-09-15T14:46:22.679Z,18016.00
2018-09-15T14:47:22.623Z,17888.00
2018-09-15T14:48:22.676Z,17408.00
2018-09-15T14:49:22.627Z,17024.00
2018-09-15T14:50:22.662Z,16676.00
2018-09-15T14:51:22.626Z,16864.00
2018-09-15T14:52:22.587Z,17088.00
2018-09-15T14:53:22.616Z,17088.00
2018-09-15T14:54:22.600Z,17248.00
2018-09-15T14:55:22.704Z,17536.00
2018-09-15T14:56:22.936Z,17312.00
2018-09-15T14:57:22.533Z,17184.00
2018-09-15T14:58:22.511Z,17152.00
2018-09-15T14:59:22.496Z,17024.00
2018-09-15T15:00:22.530Z,16712.00
2018-09-15T15:01:22.472Z,17216.00
2018-09-15T15:02:22.611Z,16548.00
2018-09-15T15:03:22.454Z,16212.00
2018-09-15T15:04:22.450Z,16348.00
2018-09-15T15:05:22.544Z,16412.00
2018-09-15T15:06:22.514Z,16488.00
2018-09-15T15:07:22.421Z,16188.00
2018-09-15T15:08:23.327Z,15940.00
2018-09-15T15:09:22.385Z,15648.00
2018-09-15T15:10:22.440Z,15548.00
2018-09-15T15:11:22.438Z,15436.00
2018-09-15T15:13:34.945Z,15308.00
2018-09-15T15:14:34.472Z,15268.00
2018-09-15T15:15:34.567Z,15084.00
2018-09-15T15:16:34.582Z,14928.00
2018-09-15T15:17:34.466Z,14904.00
2018-09-15T15:18:34.446Z,15004.00
2018-09-15T15:19:34.362Z,14968.00
2018-09-15T15:20:34.342Z,14780.00
2018-09-15T15:21:34.359Z,14560.00
2018-09-15T15:22:34.370Z,14332.00
2018-09-15T15:23:34.437Z,14060.00
2018-09-15T15:24:35.891Z,13904.00
2018-09-15T15:25:34.866Z,13636.00
2018-09-15T15:26:34.426Z,13504.00
2018-09-15T15:27:34.368Z,13700.00
2018-09-15T15:28:41.104Z,13864.00
2018-09-15T15:49:05.385Z,9208.00
2018-09-15T15:50:05.399Z,8984.00
2018-09-15T15:51:05.190Z,8856.00
2018-09-15T15:52:05.127Z,8860.00
2018-09-15T15:53:05.142Z,8728.00
2018-09-15T15:54:05.066Z,8424.00
2018-09-15T15:55:05.228Z,8280.00
2018-09-15T15:56:10.579Z,8232.00
2018-09-15T15:57:05.253Z,8212.00
2018-09-15T15:59:31.477Z,8064.00
2018-09-15T16:00:31.566Z,7984.00
2018-09-15T16:01:32.336Z,7784.00
2018-09-15T16:02:31.507Z,7688.00
2018-09-15T16:03:31.416Z,7688.00
2018-09-15T16:04:31.333Z,7624.00
2018-09-15T16:05:31.564Z,7564.00
2018-09-15T16:06:32.081Z,7548.00
2018-09-15T16:07:31.345Z,7612.00
2018-09-15T16:08:31.278Z,7720.00
2018-09-15T16:09:31.330Z,7676.00
2018-09-15T16:10:31.343Z,7652.00
2018-09-15T16:11:32.076Z,7680.00
2018-09-15T16:12:38.245Z,7804.00
2018-09-15T16:22:10.632Z,6924.00
2018-09-15T16:23:10.530Z,6804.00
2018-09-15T16:24:10.094Z,6624.00
2018-09-15T16:25:10.071Z,6432.00
2018-09-15T16:26:10.425Z,6288.00
2018-09-15T16:27:10.072Z,6160.00
2018-09-15T16:28:09.971Z,5996.00
2018-09-15T16:29:10.538Z,5896.00
2018-09-15T16:55:33.893Z,2888.00
2018-09-15T16:56:33.668Z,2864.00
2018-09-15T16:57:33.527Z,2720.00
2018-09-15T16:58:34.106Z,2548.00
2018-09-15T16:59:34.328Z,2400.00
2018-09-15T17:00:33.315Z,2312.00
2018-09-15T17:01:33.316Z,2288.00
2018-09-15T17:02:34.191Z,2184.00
2018-09-15T17:03:33.338Z,2020.00
2018-09-15T17:04:33.139Z,1932.00
2018-09-15T17:05:33.196Z,1952.00
2018-09-15T17:06:33.107Z,1928.00
2018-09-15T17:07:33.141Z,1832.00
2018-09-15T17:08:33.717Z,1728.00
2018-09-15T17:09:33.089Z,1636.00
2018-09-15T17:10:33.160Z,1552.00
2018-09-15T17:11:33.095Z,1484.00
2018-09-15T17:12:33.063Z,1408.00
2018-09-15T17:13:33.041Z,1336.00
2018-09-15T17:14:33.141Z,1292.00
2018-09-15T17:15:33.060Z,1256.00
2018-09-15T17:16:33.117Z,1216.00
2018-09-15T17:17:34.688Z,1168.00
2018-09-15T17:18:33.147Z,1140.00
2018-09-15T17:19:33.018Z,1136.00
2018-09-15T17:20:33.072Z,1128.00
2018-09-15T17:21:32.984Z,1104.00
2018-09-15T17:22:33.126Z,1052.00
2018-09-15T17:23:33.135Z,992.00
2018-09-15T17:24:33.010Z,944.00
2018-09-15T17:25:34.015Z,900.00
2018-09-15T17:26:44.104Z,856.00
2018-09-15T17:27:33.110Z,804.00
2018-09-15T17:28:32.948Z,752.00
2018-09-15T17:29:33.315Z,692.00
2018-09-15T17:30:32.873Z,640.00
2018-09-15T17:31:32.831Z,592.00
2018-09-15T17:32:33.085Z,552.00
2018-09-15T17:33:32.825Z,516.00
2018-09-15T17:34:32.772Z,480.00
2018-09-15T17:35:32.817Z,444.00
2018-09-15T17:36:32.822Z,412.00
2018-09-15T17:37:32.885Z,380.00
2018-09-15T17:38:32.750Z,348.00
2018-09-15T17:39:32.725Z,320.00
2018-09-15T17:40:32.704Z,292.00
2018-09-15T17:41:32.747Z,268.00
2018-09-15T17:42:32.737Z,248.00
2018-09-15T17:43:32.692Z,228.00
2018-09-15T17:44:32.664Z,212.00
2018-09-15T17:45:32.682Z,192.00
2018-09-15T17:46:32.635Z,176.00
2018-09-15T17:47:32.687Z,156.00
2018-09-15T17:48:32.609Z,144.00
2018-09-15T17:49:32.600Z,124.00
2018-09-15T17:50:32.850Z,112.00
2018-09-15T17:51:32.581Z,100.00
2018-09-15T17:52:32.587Z,84.00
2018-09-15T17:53:32.581Z,76.00
2018-09-15T17:54:32.598Z,64.00
2018-09-15T17:55:32.535Z,56.00
2018-09-15T17:56:32.522Z,48.00
2018-09-15T17:57:32.540Z,40.00
2018-09-15T17:58:32.858Z,36.00
2018-09-15T17:59:32.517Z,28.00
2018-09-15T18:00:32.488Z,28.00
2018-09-15T18:01:32.468Z,20.00
2018-09-15T18:02:32.476Z,20.00
2018-09-15T18:03:32.515Z,16.00
2018-09-15T18:04:47.815Z,12.00
2018-09-15T18:05:32.570Z,12.00
2018-09-15T18:06:32.480Z,12.00
2018-09-15T18:07:32.594Z,8.00
2018-09-15T18:08:32.487Z,8.00
2018-09-15T18:09:32.479Z,4.00
2018-09-15T18:10:32.382Z,4.00
2018-09-15T18:11:32.360Z,4.00
2018-09-15T18:12:44.215Z,4.00
2018-09-15T18:13:32.445Z,4.00
2018-09-15T18:14:32.391Z,4.00
2018-09-15T18:15:32.338Z,0.00
2018-09-15T18:16:32.369Z,0.00
2018-09-15T18:17:32.344Z,0.00
2018-09-15T18:18:32.397Z,0.00
2018-09-15T18:19:32.330Z,0.00
2018-09-15T18:20:32.251Z,0.00
2018-09-15T18:21:32.256Z,0.00
2018-09-15T18:22:32.231Z,0.00
2018-09-15T18:23:32.261Z,0.00
2018-09-15T18:24:32.291Z,0.00
2018-09-15T18:25:32.209Z,0.00
2018-09-15T18:26:32.187Z,0.00
2018-09-15T18:27:32.174Z,0.00
2018-09-15T18:28:32.168Z,4.00
2018-09-15T18:29:32.234Z,0.00
2018-09-15T18:30:32.211Z,0.00
2018-09-15T18:31:32.132Z,0.00
2018-09-15T18:32:32.115Z,0.00
2018-09-15T18:33:32.177Z,0.00
2018-09-15T18:34:41.096Z,0.00
2018-09-15T18:35:32.248Z,0.00
2018-09-15T18:36:32.235Z,0.00
2018-09-15T18:37:32.205Z,0.00
2018-09-15T18:38:32.101Z,0.00
2018-09-15T18:39:32.056Z,0.00
2018-09-15T18:40:32.054Z,0.00
2018-09-15T18:41:32.038Z,0.00
2018-09-15T18:44:14.945Z,0.00
2018-09-15T19:10:17.585Z,0.00
2018-09-15T19:11:17.753Z,0.00
2018-09-15T19:41:25.887Z,0.00
